San Clemente, California
Current Conditions -  °F | °C
As of 11:54 AM on Friday 28 Nov 2014 (Local Time) from KNFG Reporting Station
Clear Clear  
Wind Chill: 82°   Ceiling: Unl
Heat Index: 82°   Visibility: 8mi
Dew Point: 23°   Wind: 7mph
Humidity: 11%   Direction: NA
Pressure: 29.95"   Gusts: NA
Location:  33.43°N, 117.6°W
Report Text: KNFG 281954Z AUTO VRB06KT 8SM CLR 28/M05 A2995 RMK AO2 SLP140 T02781050
Loading
Personal Weather Stations






























Interactive Weather Map New forecast layout! Learn more

10-Day Weather Forecast

Advertisements
Track Severe Weather on mobile